Penfield, Pennsylvania
Current Conditions -  °F | °C
As of 4:54 AM on Sunday 23 Nov 2014 (Local Time) from KFIG Reporting Station
Overcast Overcast  
Wind Chill: 36°   Ceiling: 3900
Heat Index: 39°   Visibility: 10mi
Dew Point: 35°   Wind: 5mph
Humidity: 86%   Direction: 220°SW
Pressure: 30.1"   Gusts: NA
Location:  41.21°N, 78.58°W
Report Text: KFIG 230954Z AUTO 22004KT 10SM OVC039 04/02 A3010 RMK AO2 RAE23 SLP205 P0000 T00390017
Loading
Personal Weather Stations






























Interactive Weather Map New forecast layout! Learn more

10-Day Weather Forecast

Advertisements
Track Severe Weather on mobile